createdAt,value
2018-10-09T00:02:22.458Z,100856.22
2018-10-09T00:04:51.087Z,100857.18
2018-10-09T00:07:19.590Z,100849.00
2018-10-09T00:09:48.598Z,100856.97
2018-10-09T00:12:17.106Z,100851.30
2018-10-09T00:14:45.884Z,100848.64
2018-10-09T00:17:14.435Z,100851.84
2018-10-09T00:19:43.143Z,100843.25
2018-10-09T00:22:11.842Z,100851.11
2018-10-09T00:24:40.362Z,100852.90
2018-10-09T00:27:09.016Z,100859.07
2018-10-09T00:29:37.567Z,100860.77
2018-10-09T00:32:07.487Z,100803.88
2018-10-09T00:34:35.986Z,100845.90
2018-10-09T00:37:04.842Z,100849.38
2018-10-09T00:39:33.459Z,100845.41
2018-10-09T00:42:02.080Z,100851.11
2018-10-09T00:44:30.582Z,100855.09
2018-10-09T00:46:59.253Z,100851.67
2018-10-09T00:49:28.035Z,100856.02
2018-10-09T00:51:56.558Z,100859.07
2018-10-09T00:54:25.425Z,100856.41
2018-10-09T00:56:54.014Z,100849.38
2018-10-09T00:59:22.849Z,100856.41
2018-10-09T01:01:51.450Z,100847.50
2018-10-09T01:04:19.960Z,100844.84
2018-10-09T01:06:48.574Z,100845.31
2018-10-09T01:09:17.134Z,100843.89
2018-10-09T01:11:45.993Z,100835.00
2018-10-09T01:14:14.481Z,100838.98
2018-10-09T01:16:43.331Z,100825.31
2018-10-09T01:19:12.015Z,100816.43
2018-10-09T01:21:40.624Z,100806.74
2018-10-09T01:24:09.467Z,100805.05
2018-10-09T01:26:37.982Z,100810.72
2018-10-09T01:29:06.856Z,100811.31
2018-10-09T01:31:35.442Z,100821.92
2018-10-09T01:34:04.252Z,100820.10
2018-10-09T01:36:32.749Z,100820.97
2018-10-09T01:39:01.374Z,100818.31
2018-10-09T01:41:30.430Z,100829.79
2018-10-09T01:43:59.010Z,100831.21
2018-10-09T01:46:28.583Z,100817.36
2018-10-09T01:48:57.214Z,100820.97
2018-10-09T01:51:25.946Z,100780.86
2018-10-09T01:53:54.546Z,100818.12
2018-10-09T01:56:23.564Z,100814.70
2018-10-09T01:58:52.054Z,100814.70
2018-10-09T02:01:20.869Z,100827.05
2018-10-09T02:03:49.354Z,100811.95
2018-10-09T02:06:17.979Z,100807.51
2018-10-09T02:08:46.506Z,100800.88
2018-10-09T02:11:15.020Z,100809.39
2018-10-09T02:13:43.636Z,100812.45
2018-10-09T02:16:12.217Z,100807.14
2018-10-09T02:18:41.156Z,100809.39
2018-10-09T02:21:10.314Z,100797.84
2018-10-09T02:23:38.987Z,100803.72
2018-10-09T02:26:07.604Z,100803.16
2018-10-09T02:28:36.120Z,100802.95
2018-10-09T02:31:04.754Z,100701.78
2018-10-09T02:33:33.317Z,100790.47
2018-10-09T02:36:02.058Z,100780.05
2018-10-09T02:38:30.608Z,100775.70
2018-10-09T02:40:59.313Z,100775.48
2018-10-09T02:43:27.888Z,100777.06
2018-10-09T02:45:56.431Z,100783.23
2018-10-09T02:48:25.040Z,100799.14
2018-10-09T02:50:53.676Z,100792.88
2018-10-09T02:53:23.302Z,100792.33
2018-10-09T02:55:51.911Z,100789.52
2018-10-09T02:58:20.552Z,100679.64
2018-10-09T03:00:49.201Z,100773.31
2018-10-09T03:03:17.751Z,100776.44
2018-10-09T03:05:46.270Z,100771.12
2018-10-09T03:08:14.859Z,100758.63
2018-10-09T03:10:43.671Z,100748.50
2018-10-09T03:13:12.216Z,100750.86
2018-10-09T03:15:41.175Z,100761.11
2018-10-09T03:18:09.783Z,100769.23
2018-10-09T03:20:38.417Z,100772.85
2018-10-09T03:23:07.140Z,100770.66
2018-10-09T03:25:35.898Z,100772.45
2018-10-09T03:28:04.714Z,100763.94
2018-10-09T03:30:33.326Z,100770.94
2018-10-09T03:33:02.094Z,100771.30
2018-10-09T03:35:30.727Z,100770.94
2018-10-09T03:37:59.492Z,100772.53
2018-10-09T03:40:28.099Z,100772.44
2018-10-09T03:42:56.721Z,100773.20
2018-10-09T03:45:25.289Z,100768.45
2018-10-09T03:47:53.826Z,100765.34
2018-10-09T03:50:22.570Z,100738.14
2018-10-09T03:52:51.182Z,100763.55
2018-10-09T03:55:19.975Z,100710.50
2018-10-09T03:57:48.540Z,100758.98
2018-10-09T04:00:17.344Z,100754.17
2018-10-09T04:02:45.979Z,100758.98
2018-10-09T04:05:14.582Z,100757.75
2018-10-09T04:07:43.228Z,100755.59
2018-10-09T04:10:11.758Z,100751.02
2018-10-09T04:12:40.548Z,100753.77
2018-10-09T04:15:09.179Z,100752.17
2018-10-09T04:17:38.007Z,100759.27
2018-10-09T04:20:06.654Z,100777.01
2018-10-09T04:22:35.283Z,100771.61
2018-10-09T04:25:03.904Z,100772.85
2018-10-09T04:27:32.415Z,100785.61
2018-10-09T04:30:01.243Z,100777.19
2018-10-09T04:32:29.754Z,100788.17
2018-10-09T04:34:58.470Z,100776.23
2018-10-09T04:37:27.038Z,100768.77
2018-10-09T04:39:55.654Z,100780.02
2018-10-09T04:42:24.138Z,100784.00
2018-10-09T04:44:52.674Z,100783.06
2018-10-09T04:47:21.486Z,100780.78
2018-10-09T04:49:49.958Z,100785.90
2018-10-09T04:52:18.738Z,100777.94
2018-10-09T04:54:47.594Z,100763.90
2018-10-09T04:57:16.283Z,100765.63
2018-10-09T04:59:44.878Z,100762.48
2018-10-09T05:02:13.428Z,100745.73
2018-10-09T05:04:42.114Z,100758.99
2018-10-09T05:07:11.438Z,100753.28
2018-10-09T05:09:40.260Z,100750.53
2018-10-09T05:12:08.882Z,100761.15
2018-10-09T05:14:37.744Z,100720.34
2018-10-09T05:17:06.360Z,100762.98
2018-10-09T05:19:35.187Z,100757.66
2018-10-09T05:22:03.853Z,100755.37
2018-10-09T05:24:32.710Z,100752.83
2018-10-09T05:27:01.238Z,100751.49
2018-10-09T05:29:29.854Z,100747.05
2018-10-09T05:31:58.954Z,100750.07
2018-10-09T05:34:27.491Z,100743.81
2018-10-09T05:36:56.458Z,100740.20
2018-10-09T05:39:25.151Z,100742.86
2018-10-09T05:41:53.785Z,100746.83
2018-10-09T05:44:22.375Z,100752.51
2018-10-09T05:46:50.872Z,100753.10
2018-10-09T05:49:19.739Z,100773.94
2018-10-09T05:51:48.246Z,100780.20
2018-10-09T05:54:17.059Z,100739.12
2018-10-09T05:56:45.584Z,100785.52
2018-10-09T05:59:14.318Z,100788.16
2018-10-09T06:01:43.127Z,100789.86
2018-10-09T06:04:12.057Z,100792.61
2018-10-09T06:06:40.670Z,100798.22
2018-10-09T06:09:10.570Z,100802.66
2018-10-09T06:11:39.497Z,100750.69
2018-10-09T06:14:08.434Z,100802.57
2018-10-09T06:16:37.099Z,100819.63
2018-10-09T06:19:06.823Z,100818.30
2018-10-09T06:21:35.662Z,100772.17
2018-10-09T06:24:04.292Z,100818.67
2018-10-09T06:26:33.059Z,100826.08
2018-10-09T06:29:01.539Z,100829.50
2018-10-09T06:31:31.758Z,100828.17
2018-10-09T06:34:00.435Z,100838.59
2018-10-09T06:36:29.026Z,100843.31
2018-10-09T06:38:57.826Z,100829.48
2018-10-09T06:41:26.331Z,100825.67
2018-10-09T06:43:55.211Z,100831.38
2018-10-09T06:46:23.695Z,100843.50
2018-10-09T06:48:52.430Z,100848.02
2018-10-09T06:51:20.950Z,100844.34
2018-10-09T06:53:49.593Z,100855.43
2018-10-09T06:56:18.078Z,100854.10
2018-10-09T06:58:48.822Z,100855.80
2018-10-09T07:01:17.442Z,100861.20
2018-10-09T07:03:45.975Z,100856.39
2018-10-09T07:06:14.704Z,100780.30
2018-10-09T07:08:43.340Z,100845.96
2018-10-09T07:11:12.280Z,100837.40
2018-10-09T07:13:40.812Z,100841.38
2018-10-09T07:16:09.565Z,100846.70
2018-10-09T07:18:38.187Z,100857.72
2018-10-09T07:21:06.958Z,100846.33
2018-10-09T07:23:35.610Z,100852.59
2018-10-09T07:26:04.294Z,100861.39
2018-10-09T07:28:33.106Z,100863.95
2018-10-09T07:31:01.585Z,100862.45
2018-10-09T07:33:30.351Z,100816.61
2018-10-09T07:35:58.940Z,100867.65
2018-10-09T07:38:27.560Z,100870.51
2018-10-09T07:40:57.051Z,100869.45
2018-10-09T07:43:26.420Z,100863.28
2018-10-09T07:45:54.971Z,100877.61
2018-10-09T07:48:23.542Z,100872.11
2018-10-09T07:50:52.377Z,100769.78
2018-10-09T07:53:20.860Z,100872.11
2018-10-09T07:55:49.686Z,100872.47
2018-10-09T07:58:18.303Z,100871.14
2018-10-09T08:00:46.959Z,100871.14
2018-10-09T08:03:15.522Z,100866.60
2018-10-09T08:05:44.023Z,100874.37
2018-10-09T08:08:12.718Z,100870.13
2018-10-09T08:10:41.313Z,100877.70
2018-10-09T08:13:10.395Z,100873.98
2018-10-09T08:15:38.972Z,100885.77
2018-10-09T08:18:09.159Z,100882.15
2018-10-09T08:20:38.849Z,100881.95
2018-10-09T08:23:07.628Z,100867.34
2018-10-09T08:25:36.353Z,100870.36
2018-10-09T08:28:05.364Z,100861.27
2018-10-09T08:30:34.313Z,100862.00
2018-10-09T08:33:03.626Z,100857.28
2018-10-09T08:35:32.138Z,100861.27
2018-10-09T08:38:00.745Z,100858.52
2018-10-09T08:40:29.531Z,100863.92
2018-10-09T08:43:00.746Z,100861.07
2018-10-09T08:45:29.554Z,100857.26
2018-10-09T08:47:58.094Z,100856.70
2018-10-09T08:50:26.990Z,100847.03
2018-10-09T08:52:55.520Z,100854.77
2018-10-09T08:55:24.461Z,100850.58
2018-10-09T08:57:53.021Z,100860.64
2018-10-09T09:00:22.331Z,100852.31
2018-10-09T09:02:50.972Z,100853.70
2018-10-09T09:05:19.785Z,100859.65
2018-10-09T09:07:48.402Z,100847.33
2018-10-09T09:10:17.071Z,100867.72
2018-10-09T09:12:45.686Z,100866.89
2018-10-09T09:15:14.282Z,100866.49
2018-10-09T09:17:43.251Z,100879.45
2018-10-09T09:20:11.882Z,100882.66
2018-10-09T09:22:40.897Z,100896.81
2018-10-09T09:25:10.457Z,100887.98
2018-10-09T09:27:39.355Z,100890.44
2018-10-09T09:30:08.488Z,100890.61
2018-10-09T09:32:37.274Z,100878.88
2018-10-09T09:35:05.983Z,100873.84
2018-10-09T09:37:34.712Z,100876.76
2018-10-09T09:40:03.448Z,100874.97
2018-10-09T09:42:32.053Z,100863.83
2018-10-09T09:45:00.851Z,100797.59
2018-10-09T09:47:29.420Z,100881.11
2018-10-09T09:49:58.152Z,100887.55
2018-10-09T09:52:26.728Z,100877.33
2018-10-09T09:54:55.299Z,100895.27
2018-10-09T09:57:23.862Z,100879.08
2018-10-09T09:59:52.436Z,100897.35
2018-10-09T10:02:20.992Z,100888.34
2018-10-09T10:04:49.488Z,100891.37
2018-10-09T10:07:18.212Z,100893.47
2018-10-09T10:09:46.812Z,100903.41
2018-10-09T10:12:15.435Z,100903.90
2018-10-09T10:14:43.948Z,100898.75
2018-10-09T10:17:12.589Z,100894.77
2018-10-09T10:19:41.634Z,100901.97
2018-10-09T10:22:10.119Z,100893.60
2018-10-09T10:24:39.847Z,100866.36
2018-10-09T10:27:08.553Z,100893.90
2018-10-09T10:29:37.403Z,100897.02
2018-10-09T10:32:06.086Z,100891.30
2018-10-09T10:34:35.107Z,100890.23
2018-10-09T10:37:03.711Z,100896.02
2018-10-09T10:39:32.340Z,100895.29
2018-10-09T10:42:00.867Z,100884.66
2018-10-09T10:44:29.353Z,100899.67
2018-10-09T10:46:58.054Z,100889.51
2018-10-09T10:49:26.748Z,100896.83
2018-10-09T10:51:55.995Z,100884.66
2018-10-09T10:54:24.591Z,100885.98
2018-10-09T10:56:53.364Z,100891.62
2018-10-09T10:59:22.087Z,100898.13
2018-10-09T11:01:50.761Z,100888.61
2018-10-09T11:04:19.236Z,100882.06
2018-10-09T11:06:47.759Z,100881.86
2018-10-09T11:09:16.549Z,100845.64
2018-10-09T11:11:45.678Z,100884.16
2018-10-09T11:14:14.405Z,100877.30
2018-10-09T11:16:43.038Z,100873.57
2018-10-09T11:19:11.691Z,100877.09
2018-10-09T11:21:40.513Z,100879.34
2018-10-09T11:24:09.135Z,100882.55
2018-10-09T11:26:37.682Z,100860.72
2018-10-09T11:29:06.349Z,100875.40
2018-10-09T11:31:35.203Z,100814.50
2018-10-09T11:34:11.287Z,100865.41
2018-10-09T11:36:39.968Z,100879.68
2018-10-09T11:39:09.190Z,100874.17
2018-10-09T11:41:37.686Z,100881.03
2018-10-09T11:44:06.637Z,100879.49
2018-10-09T11:46:36.145Z,100872.11
2018-10-09T11:49:04.790Z,100866.61
2018-10-09T11:51:33.382Z,100867.94
2018-10-09T11:54:01.896Z,100873.67
2018-10-09T11:56:30.572Z,100856.08
2018-10-09T11:58:59.136Z,100867.17
2018-10-09T12:01:28.379Z,100858.17
2018-10-09T12:03:56.938Z,100868.03
2018-10-09T12:06:25.639Z,100871.06
2018-10-09T12:08:54.162Z,100875.81
2018-10-09T12:11:22.835Z,100887.28
2018-10-09T12:13:51.469Z,100879.80
2018-10-09T12:16:20.058Z,100890.91
2018-10-09T12:18:48.940Z,100893.51
2018-10-09T12:21:17.495Z,100885.73
2018-10-09T12:23:46.257Z,100881.34
2018-10-09T12:26:14.813Z,100861.80
2018-10-09T12:28:43.400Z,100856.73
2018-10-09T12:31:11.878Z,100859.19
2018-10-09T12:33:40.401Z,100855.47
2018-10-09T12:36:09.263Z,100862.45
2018-10-09T12:38:37.837Z,100864.14
2018-10-09T12:41:06.817Z,100871.15
2018-10-09T12:43:35.466Z,100881.22
2018-10-09T12:46:04.186Z,100885.83
2018-10-09T12:48:32.751Z,100885.73
2018-10-09T12:51:01.560Z,100886.48
2018-10-09T12:53:30.214Z,100896.38
2018-10-09T12:55:58.730Z,100895.23
2018-10-09T12:58:27.513Z,100887.61
2018-10-09T13:00:56.081Z,100896.92
2018-10-09T13:03:24.821Z,100887.97
2018-10-09T13:05:53.370Z,100882.50
2018-10-09T13:08:21.962Z,100879.16
2018-10-09T13:10:50.492Z,100879.78
2018-10-09T13:13:19.107Z,100874.80
2018-10-09T13:15:47.669Z,100879.15
2018-10-09T13:18:16.166Z,100867.83
2018-10-09T13:20:45.053Z,100873.28
2018-10-09T13:23:13.617Z,100869.08
2018-10-09T13:25:42.241Z,100874.30
2018-10-09T13:28:10.838Z,100869.26
2018-10-09T13:30:39.428Z,100863.94
2018-10-09T13:33:08.148Z,100863.39
2018-10-09T13:35:36.837Z,100859.25
2018-10-09T13:38:05.572Z,100866.22
2018-10-09T13:40:34.022Z,100861.42
2018-10-09T13:43:02.607Z,100857.89
2018-10-09T13:45:32.455Z,100863.32
2018-10-09T13:48:02.340Z,100870.94
2018-10-09T13:50:31.164Z,100877.04
2018-10-09T13:52:59.737Z,100879.70
2018-10-09T13:55:28.464Z,100873.86
2018-10-09T13:57:57.087Z,100867.21
2018-10-09T14:00:25.973Z,100816.29
2018-10-09T14:02:55.054Z,100865.02
2018-10-09T14:05:24.314Z,100842.38
2018-10-09T14:07:52.932Z,100870.39
2018-10-09T14:10:21.782Z,100863.27
2018-10-09T14:12:50.455Z,100872.17
2018-10-09T14:15:19.047Z,100876.71
2018-10-09T14:17:47.984Z,100872.11
2018-10-09T14:20:16.618Z,100874.09
2018-10-09T14:22:45.688Z,100877.13
2018-10-09T14:25:14.229Z,100876.16
2018-10-09T14:27:43.277Z,100868.35
2018-10-09T14:30:12.021Z,100870.25
2018-10-09T14:32:40.915Z,100873.94
2018-10-09T14:35:09.628Z,100870.62
2018-10-09T14:37:38.345Z,100871.95
2018-10-09T14:40:07.058Z,100874.09
2018-10-09T14:42:35.595Z,100871.59
2018-10-09T14:45:04.467Z,100867.34
2018-10-09T14:47:32.993Z,100877.33
2018-10-09T14:50:01.722Z,100868.88
2018-10-09T14:52:30.274Z,100877.33
2018-10-09T14:54:58.973Z,100876.16
2018-10-09T14:57:27.615Z,100880.14
2018-10-09T14:59:56.274Z,100884.74
2018-10-09T15:02:26.518Z,100857.71
2018-10-09T15:04:55.666Z,100890.22
2018-10-09T15:07:24.352Z,100882.70
2018-10-09T15:09:53.034Z,100883.93
2018-10-09T15:12:22.583Z,100876.27
2018-10-09T15:14:51.491Z,100881.79
2018-10-09T15:17:22.601Z,100875.14
2018-10-09T15:19:51.776Z,100884.45
2018-10-09T15:22:20.574Z,100872.80
2018-10-09T15:24:49.212Z,100878.22
2018-10-09T15:27:18.519Z,100880.52
2018-10-09T15:29:47.313Z,100879.95
2018-10-09T15:32:17.450Z,100886.34
2018-10-09T15:34:46.114Z,100891.88
2018-10-09T15:37:15.122Z,100887.78
2018-10-09T15:39:43.816Z,100881.70
2018-10-09T15:42:13.551Z,100888.45
2018-10-09T15:44:42.326Z,100886.86
2018-10-09T15:47:11.020Z,100897.50
2018-10-09T15:49:41.446Z,100890.19
2018-10-09T15:52:10.501Z,100888.09
2018-10-09T15:54:39.708Z,100717.05
2018-10-09T15:57:08.781Z,100890.90
2018-10-09T15:59:37.447Z,100848.09
2018-10-09T16:02:06.712Z,100901.73
2018-10-09T16:04:35.551Z,100904.89
2018-10-09T16:07:04.129Z,100920.19
2018-10-09T16:09:33.475Z,100916.96
2018-10-09T16:12:02.209Z,100908.62
2018-10-09T16:14:31.479Z,100909.58
2018-10-09T16:17:00.158Z,100911.84
2018-10-09T16:19:28.831Z,100920.78
2018-10-09T16:21:57.394Z,100930.09
2018-10-09T16:24:26.115Z,100916.23
2018-10-09T16:26:55.109Z,100929.72
2018-10-09T16:29:28.464Z,100893.30
2018-10-09T16:31:57.159Z,100943.20
2018-10-09T16:34:26.196Z,100949.42
2018-10-09T16:36:55.032Z,100948.29
2018-10-09T16:39:23.979Z,100954.47
2018-10-09T16:41:52.759Z,100962.17
2018-10-09T16:44:21.336Z,100964.06
2018-10-09T16:46:50.402Z,100963.10
2018-10-09T16:49:18.894Z,100969.19
2018-10-09T16:51:48.046Z,100871.57
2018-10-09T16:54:17.070Z,100976.39
2018-10-09T16:56:46.072Z,100979.05
2018-10-09T16:59:14.634Z,100986.19
2018-10-09T17:01:43.283Z,100977.36
2018-10-09T17:04:11.813Z,100982.67
2018-10-09T17:06:40.548Z,100982.41
2018-10-09T17:09:10.144Z,100983.83
2018-10-09T17:11:39.167Z,100994.83
2018-10-09T17:14:08.227Z,100995.39
2018-10-09T17:16:37.292Z,101010.97
2018-10-09T17:19:05.953Z,100999.97
2018-10-09T17:21:34.579Z,101007.94
2018-10-09T17:24:04.459Z,101002.53
2018-10-09T17:26:33.697Z,100998.23
2018-10-09T17:29:03.385Z,100993.88
2018-10-09T17:31:32.902Z,100988.38
2018-10-09T17:34:01.676Z,100994.08
2018-10-09T17:36:30.454Z,100993.30
2018-10-09T17:38:59.195Z,100997.88
2018-10-09T17:41:27.818Z,101003.48
2018-10-09T17:43:56.439Z,100992.66
2018-10-09T17:46:26.405Z,100946.84
2018-10-09T17:48:55.038Z,101003.95
2018-10-09T17:51:24.294Z,100943.98
2018-10-09T17:53:53.489Z,101007.38
2018-10-09T17:56:22.584Z,101021.21
2018-10-09T17:58:51.162Z,101031.84
2018-10-09T18:01:20.052Z,101029.19
2018-10-09T18:03:49.185Z,101030.14
2018-10-09T18:06:17.796Z,101027.48
2018-10-09T18:08:46.529Z,101032.80
2018-10-09T18:11:15.170Z,101045.48
2018-10-09T18:13:43.992Z,101038.84
2018-10-09T18:16:12.630Z,101037.73
2018-10-09T18:18:41.670Z,101039.80
2018-10-09T18:21:11.631Z,101034.80
2018-10-09T18:23:40.831Z,101036.41
2018-10-09T18:26:09.473Z,101036.31
2018-10-09T18:28:38.932Z,101048.54
2018-10-09T18:31:07.534Z,101050.73
2018-10-09T18:33:36.572Z,101052.34
2018-10-09T18:36:05.156Z,101061.55
2018-10-09T18:38:33.970Z,101063.73
2018-10-09T18:41:03.199Z,100946.45
2018-10-09T18:43:32.139Z,101067.16
2018-10-09T18:46:00.884Z,101053.57
2018-10-09T18:48:29.470Z,101046.47
2018-10-09T18:50:58.701Z,101050.27
2018-10-09T18:53:27.472Z,101042.85
2018-10-09T18:55:56.627Z,100935.06
2018-10-09T18:58:25.289Z,101047.23
2018-10-09T19:00:54.444Z,101050.45
2018-10-09T19:03:23.127Z,101049.49
2018-10-09T19:05:51.954Z,101061.64
2018-10-09T19:08:20.642Z,101058.05
2018-10-09T19:10:49.322Z,101054.16
2018-10-09T19:13:18.173Z,101012.75
2018-10-09T19:15:46.822Z,101054.44
2018-10-09T19:18:15.745Z,101047.42
2018-10-09T19:20:44.272Z,101056.72
2018-10-09T19:23:13.428Z,101063.36
2018-10-09T19:25:42.004Z,101052.73
2018-10-09T19:28:11.252Z,101059.38
2018-10-09T19:30:39.866Z,101065.06
2018-10-09T19:33:08.454Z,101081.00
2018-10-09T19:35:37.219Z,101067.81
2018-10-09T19:38:05.871Z,101076.06
2018-10-09T19:40:34.813Z,100956.70
2018-10-09T19:43:03.420Z,101069.42
2018-10-09T19:45:32.908Z,101073.80
2018-10-09T19:48:01.950Z,101078.16
2018-10-09T19:50:30.736Z,101081.78
2018-10-09T19:52:59.300Z,101086.12
2018-10-09T19:55:27.904Z,101083.47
2018-10-09T19:57:56.507Z,101084.03
2018-10-09T20:00:25.141Z,101096.76
2018-10-09T20:02:54.747Z,101097.72
2018-10-09T20:05:23.481Z,101101.98
2018-10-09T20:07:52.869Z,101102.17
2018-10-09T20:10:21.441Z,101100.38
2018-10-09T20:12:50.323Z,101100.84
2018-10-09T20:15:18.952Z,101103.03
2018-10-09T20:17:47.807Z,101110.91
2018-10-09T20:20:16.374Z,101117.05
2018-10-09T20:22:44.925Z,101107.94
2018-10-09T20:25:13.857Z,101103.49
2018-10-09T20:27:42.422Z,101111.74
2018-10-09T20:30:11.312Z,101107.39
2018-10-09T20:32:39.973Z,101114.40
2018-10-09T20:35:08.856Z,101120.58
2018-10-09T20:37:37.418Z,101122.37
2018-10-09T20:40:06.074Z,101130.34
2018-10-09T20:42:34.823Z,101130.43
2018-10-09T20:45:03.510Z,101122.95
2018-10-09T20:47:38.029Z,101130.34
2018-10-09T20:50:07.021Z,101125.52
2018-10-09T20:52:35.587Z,101126.85
2018-10-09T20:55:04.359Z,101127.12
2018-10-09T20:57:32.890Z,101134.14
2018-10-09T21:00:01.450Z,101135.47
2018-10-09T21:02:30.149Z,101080.59
2018-10-09T21:04:58.716Z,101134.55
2018-10-09T21:07:27.442Z,101141.65
2018-10-09T21:09:56.222Z,101146.00
2018-10-09T21:12:24.891Z,101147.83
2018-10-09T21:14:53.406Z,101149.16
2018-10-09T21:17:22.748Z,101158.55
2018-10-09T21:19:51.261Z,101158.55
2018-10-09T21:22:19.829Z,101156.55
2018-10-09T21:24:48.834Z,101163.59
2018-10-09T21:27:17.413Z,101170.41
2018-10-09T21:29:46.476Z,101156.55
2018-10-09T21:32:15.090Z,101152.19
2018-10-09T21:34:43.936Z,101154.84
2018-10-09T21:37:12.538Z,101157.50
2018-10-09T21:39:41.287Z,101161.86
2018-10-09T21:42:09.920Z,101159.30
2018-10-09T21:44:38.470Z,101157.88
2018-10-09T21:47:08.178Z,101151.63
2018-10-09T21:49:37.295Z,101150.86
2018-10-09T21:52:06.315Z,101155.80
2018-10-09T21:54:34.932Z,101163.77
2018-10-09T21:57:03.670Z,101078.44
2018-10-09T21:59:32.282Z,101168.31
2018-10-09T22:02:01.045Z,101160.34
2018-10-09T22:04:29.710Z,101157.69
2018-10-09T22:06:58.300Z,101163.37
2018-10-09T22:09:27.016Z,101119.56
2018-10-09T22:11:55.571Z,101164.51
2018-10-09T22:14:24.747Z,101156.91
2018-10-09T22:16:53.460Z,101163.18
2018-10-09T22:19:22.264Z,101166.80
2018-10-09T22:21:50.836Z,101161.66
2018-10-09T22:24:19.545Z,101163.83
2018-10-09T22:26:48.163Z,101166.98
2018-10-09T22:29:16.715Z,101166.98
2018-10-09T22:31:45.496Z,101165.83
2018-10-09T22:34:14.030Z,101178.70
2018-10-09T22:36:42.860Z,101177.38
2018-10-09T22:39:11.574Z,101182.50
2018-10-09T22:41:40.415Z,101184.78
2018-10-09T22:44:09.066Z,101184.70
2018-10-09T22:46:37.727Z,101195.01
2018-10-09T22:49:06.332Z,101188.77
2018-10-09T22:51:34.911Z,101184.47
2018-10-09T22:54:03.777Z,101173.76
2018-10-09T22:56:32.319Z,101187.13
2018-10-09T22:59:01.333Z,101188.77
2018-10-09T23:01:30.020Z,101196.83
2018-10-09T23:03:58.886Z,101205.63
2018-10-09T23:06:27.527Z,101198.98
2018-10-09T23:08:56.127Z,101197.75
2018-10-09T23:11:24.826Z,101195.36
2018-10-09T23:13:53.378Z,101207.05
2018-10-09T23:16:22.152Z,101141.77
2018-10-09T23:18:50.756Z,101215.52
2018-10-09T23:21:19.422Z,101221.75
2018-10-09T23:23:48.085Z,101220.91
2018-10-09T23:26:16.699Z,101216.44
2018-10-09T23:28:45.352Z,101224.03
2018-10-09T23:31:14.037Z,101226.69
2018-10-09T23:33:42.983Z,101228.97
2018-10-09T23:36:11.571Z,101245.74
2018-10-09T23:38:40.342Z,101269.73
2018-10-09T23:41:08.989Z,101259.89
2018-10-09T23:43:37.610Z,101254.58
2018-10-09T23:46:06.206Z,101255.53
2018-10-09T23:48:34.760Z,101265.75
2018-10-09T23:51:03.570Z,101215.57
2018-10-09T23:53:32.170Z,101252.09
2018-10-09T23:56:01.042Z,101264.91
2018-10-09T23:58:29.739Z,101267.08
